createdAt,value
2022-08-24T00:01:06.412Z,78.80
2022-08-24T00:06:11.388Z,79.50
2022-08-24T00:11:14.108Z,79.40
2022-08-24T00:16:17.188Z,79.30
2022-08-24T00:21:19.742Z,79.20
2022-08-24T00:26:29.087Z,78.80
2022-08-24T00:31:31.740Z,78.80
2022-08-24T00:36:34.802Z,79.00
2022-08-24T00:41:41.874Z,79.10
2022-08-24T00:47:04.750Z,79.10
2022-08-24T00:57:31.743Z,79.60
2022-08-24T01:02:37.492Z,79.30
2022-08-24T01:07:40.874Z,79.80
2022-08-24T01:13:07.016Z,79.60
2022-08-24T01:18:33.255Z,79.40
2022-08-24T01:28:49.530Z,79.80
2022-08-24T01:33:56.200Z,80.60
2022-08-24T01:39:02.459Z,80.60
2022-08-24T01:44:05.622Z,81.00
2022-08-24T01:49:08.678Z,80.70
2022-08-24T01:54:11.175Z,80.50
2022-08-24T01:59:13.993Z,80.40
2022-08-24T02:04:19.719Z,80.00
2022-08-24T02:09:23.323Z,80.00
2022-08-24T02:14:36.407Z,79.90
2022-08-24T02:19:38.953Z,80.10
2022-08-24T02:24:42.617Z,80.00
2022-08-24T02:29:45.270Z,79.80
2022-08-24T02:34:48.211Z,80.00
2022-08-24T02:39:52.643Z,80.10
2022-08-24T02:44:56.411Z,79.90
2022-08-24T02:49:58.732Z,79.90
2022-08-24T02:55:00.992Z,79.90
2022-08-24T03:00:10.209Z,80.10
2022-08-24T03:05:15.425Z,80.20
2022-08-24T03:10:18.761Z,80.40
2022-08-24T03:15:22.658Z,80.40
2022-08-24T03:20:25.464Z,80.20
2022-08-24T03:25:28.162Z,79.90
2022-08-24T03:30:30.495Z,80.70
2022-08-24T03:35:34.628Z,80.30
2022-08-24T03:40:36.989Z,80.50
2022-08-24T03:45:39.613Z,80.30
2022-08-24T03:50:46.310Z,80.30
2022-08-24T03:55:50.523Z,80.50
2022-08-24T04:00:52.876Z,80.40
2022-08-24T04:05:55.189Z,80.30
2022-08-24T04:10:58.689Z,80.20
2022-08-24T04:16:19.190Z,80.20
2022-08-24T04:21:28.118Z,81.00
2022-08-24T04:26:43.985Z,80.60
2022-08-24T04:31:50.052Z,80.50
2022-08-24T04:36:52.778Z,80.00
2022-08-24T04:41:57.332Z,79.80
2022-08-24T04:47:08.823Z,80.00
2022-08-24T04:52:12.753Z,79.90
2022-08-24T04:57:18.300Z,79.20
2022-08-24T05:02:22.817Z,79.50
2022-08-24T05:07:26.994Z,78.90
2022-08-24T05:12:29.596Z,79.90
2022-08-24T05:17:36.113Z,80.00
2022-08-24T05:22:38.702Z,79.70
2022-08-24T05:27:41.454Z,79.50
2022-08-24T05:32:43.901Z,79.20
2022-08-24T05:37:46.291Z,78.10
2022-08-24T05:42:50.464Z,78.50
2022-08-24T05:47:52.836Z,78.90
2022-08-24T05:53:14.964Z,78.50
2022-08-24T05:58:23.036Z,78.20
2022-08-24T06:03:37.507Z,77.30
2022-08-24T06:08:45.827Z,77.50
2022-08-24T06:13:51.852Z,76.10
2022-08-24T06:18:59.335Z,77.50
2022-08-24T06:24:05.091Z,76.90
2022-08-24T06:29:09.328Z,77.10
2022-08-24T06:34:19.526Z,77.20
2022-08-24T06:39:21.829Z,76.30
2022-08-24T06:44:26.342Z,74.00
2022-08-24T06:49:37.983Z,75.40
2022-08-24T06:54:40.290Z,75.40
2022-08-24T06:59:44.219Z,75.30
2022-08-24T07:04:47.351Z,74.80
2022-08-24T07:10:10.711Z,73.10
2022-08-24T07:15:16.592Z,74.30
2022-08-24T07:20:25.055Z,73.90
2022-08-24T07:25:47.559Z,73.20
2022-08-24T07:30:53.941Z,75.50
2022-08-24T07:35:57.732Z,77.50
2022-08-24T07:41:38.258Z,79.20
2022-08-24T07:46:23.766Z,78.10
2022-08-24T07:51:28.946Z,77.40
2022-08-24T07:56:31.910Z,76.40
2022-08-24T08:01:37.844Z,74.60
2022-08-24T08:06:42.218Z,71.10
2022-08-24T08:11:45.283Z,71.60
2022-08-24T08:16:47.748Z,69.00
2022-08-24T08:22:12.147Z,71.10
2022-08-24T08:27:35.873Z,69.60
2022-08-24T08:32:38.588Z,68.60
2022-08-24T08:37:41.433Z,68.00
2022-08-24T08:43:11.437Z,68.00
2022-08-24T08:54:15.181Z,67.80
2022-08-24T09:37:21.019Z,65.10
2022-08-24T09:58:18.829Z,65.00
2022-08-24T10:36:11.540Z,65.30
2022-08-24T10:46:59.932Z,66.60
2022-08-24T11:03:10.787Z,66.50
2022-08-24T11:08:21.516Z,66.90
2022-08-24T11:13:27.359Z,68.10
2022-08-24T11:18:52.498Z,68.80
2022-08-24T11:23:54.852Z,69.40
2022-08-24T11:29:01.235Z,70.10
2022-08-24T11:34:08.214Z,70.90
2022-08-24T11:39:20.811Z,70.80
2022-08-24T11:49:52.668Z,70.00
2022-08-24T12:00:21.776Z,72.30
2022-08-24T12:15:54.384Z,72.60
2022-08-24T12:20:58.079Z,72.70
2022-08-24T12:26:06.772Z,71.70
2022-08-24T12:36:33.743Z,71.30
2022-08-24T12:41:48.398Z,71.80
2022-08-24T12:46:54.572Z,71.50
2022-08-24T13:07:43.403Z,70.70
2022-08-24T13:23:19.652Z,72.10
2022-08-24T13:38:52.347Z,73.80
2022-08-24T14:05:39.425Z,75.40
2022-08-24T14:11:10.746Z,75.50
2022-08-24T14:21:35.006Z,75.10
2022-08-24T14:48:02.901Z,76.50
2022-08-24T14:53:29.516Z,76.70
2022-08-24T15:20:08.650Z,74.80
2022-08-24T15:25:19.089Z,74.80
2022-08-24T15:30:28.163Z,73.70
2022-08-24T15:35:34.873Z,72.30
2022-08-24T15:40:37.171Z,73.40
2022-08-24T15:45:48.192Z,73.30
2022-08-24T15:50:52.870Z,73.50
2022-08-24T15:55:55.551Z,74.10
2022-08-24T16:17:01.910Z,72.30
2022-08-24T16:22:10.920Z,70.20
2022-08-24T16:27:16.929Z,69.20
2022-08-24T16:37:32.351Z,69.10
2022-08-24T16:42:35.119Z,68.50
2022-08-24T16:47:37.993Z,66.40
2022-08-24T16:52:40.436Z,67.40
2022-08-24T16:57:43.799Z,67.10
2022-08-24T17:02:48.217Z,66.90
2022-08-24T17:07:51.800Z,66.40
2022-08-24T17:12:54.747Z,67.10
2022-08-24T17:18:02.168Z,68.20
2022-08-24T17:23:04.532Z,68.40
2022-08-24T17:28:08.014Z,68.60
2022-08-24T17:33:10.331Z,68.30
2022-08-24T17:38:12.671Z,69.00
2022-08-24T17:43:15.267Z,68.80
2022-08-24T17:48:22.624Z,69.40
2022-08-24T17:53:24.977Z,69.90
2022-08-24T17:58:27.620Z,70.00
2022-08-24T18:03:29.875Z,70.50
2022-08-24T18:08:32.136Z,70.50
2022-08-24T18:13:34.408Z,70.90
2022-08-24T18:18:37.568Z,70.20
2022-08-24T18:23:43.420Z,71.20
2022-08-24T18:28:46.284Z,71.00
2022-08-24T18:33:48.547Z,71.00
2022-08-24T18:38:51.182Z,71.70
2022-08-24T18:43:54.792Z,71.80
2022-08-24T18:48:58.598Z,71.60
2022-08-24T18:54:06.623Z,71.30
2022-08-24T18:59:12.543Z,71.80
2022-08-24T19:04:14.970Z,71.60
2022-08-24T19:09:19.893Z,71.30
2022-08-24T19:14:22.191Z,70.60
2022-08-24T19:19:24.559Z,68.90
2022-08-24T19:24:29.015Z,69.80
2022-08-24T19:29:54.452Z,69.80
2022-08-24T19:34:54.565Z,69.70
2022-08-24T19:39:58.053Z,68.90
2022-08-24T19:45:21.815Z,68.90
2022-08-24T19:50:28.229Z,69.60
2022-08-24T19:55:31.280Z,69.80
2022-08-24T20:00:38.119Z,70.00
2022-08-24T20:05:40.658Z,70.10
2022-08-24T20:10:42.913Z,69.90
2022-08-24T20:15:45.949Z,69.90
2022-08-24T20:20:49.348Z,69.90
2022-08-24T20:25:54.807Z,70.00
2022-08-24T20:30:57.323Z,69.90
2022-08-24T20:35:59.927Z,70.00
2022-08-24T20:41:02.523Z,69.90
2022-08-24T20:46:05.079Z,70.00
2022-08-24T20:51:07.656Z,69.80
2022-08-24T21:01:43.981Z,69.90
2022-08-24T21:06:46.284Z,70.20
2022-08-24T21:11:53.019Z,69.40
2022-08-24T21:16:57.491Z,69.30
2022-08-24T21:21:59.786Z,69.70
2022-08-24T21:27:02.603Z,69.20
2022-08-24T21:32:26.443Z,69.00
2022-08-24T21:37:28.951Z,69.20
2022-08-24T21:42:31.515Z,69.10
2022-08-24T21:47:35.003Z,69.20
2022-08-24T21:52:37.511Z,69.20
2022-08-24T21:57:40.294Z,69.20
2022-08-24T22:02:42.658Z,69.20
2022-08-24T22:07:45.228Z,69.00
2022-08-24T22:12:48.081Z,69.20
2022-08-24T22:17:52.504Z,69.10
2022-08-24T22:22:55.094Z,69.00
2022-08-24T22:27:57.366Z,69.10
2022-08-24T22:32:59.992Z,69.00
2022-08-24T22:38:03.103Z,69.00
2022-08-24T22:43:07.010Z,68.80
2022-08-24T22:48:09.672Z,68.70
2022-08-24T22:53:11.954Z,68.60
2022-08-24T22:58:14.386Z,68.40
2022-08-24T23:03:16.653Z,68.50
2022-08-24T23:08:18.919Z,68.30
2022-08-24T23:13:22.920Z,68.30
2022-08-24T23:18:48.000Z,68.20
2022-08-24T23:23:50.827Z,68.20
2022-08-24T23:28:53.326Z,68.20
2022-08-24T23:33:55.830Z,68.30
2022-08-24T23:39:00.241Z,68.10
2022-08-24T23:44:05.692Z,68.00
2022-08-24T23:49:08.981Z,67.90
2022-08-24T23:54:11.897Z,68.00
2022-08-24T23:59:19.147Z,67.90
